AGC weather

Allegheny County Airport
Pittsburgh, Pennsylvania, United States

Public forecast

Using degrees Fahrenheit for public forecast. Weather courtesy of forecast.io.

Current aviation weather report (METAR) for Allegheny County Airport

Retrieved 2020/01/25 01:38 UTC (0 seconds ago):

KAGC 250138Z 10007KT 2SM RA BR SCT014 BKN022 OVC036 06/05 A2994 RMK AO2 P0011 T00560050

Aviation forecast (TAF) for Allegheny County Airport

Retrieved 2020-01-25 00:22 UTC (1 hour ago):

TAF KAGC 242320Z 2500/2524 13012KT 5SM -RA OVC015 WS020/15050KT FM250200 14006KT 6SM -RA BR OVC025 FM250800 19009KT P6SM -RA OVC005 FM251500 23012G20KT P6SM OVC015